Time;durP1;ratioP1;P1;durP2;ratioP2;P2;SDS_P1;SDS_P2;PMS_P1;PMS_P2;Temp;Humidity;BMP_temperature;BMP_pressure;BME280_temperature;BME280_humidity;BME280_pressure;Samples;Min_cycle;Max_cycle;Signal;HPM_P1;HPM_P2
2023/02/21 02:13:51;;;;;;;34.80;12.07;;;9.10;99.90;;;;;;4991147;28;20472;-70
2023/02/21 02:16:28;;;;;;;29.37;13.57;;;9.20;99.90;;;;;;4991296;28;20481;-71
2023/02/21 02:19:19;;;;;;;28.47;13.70;;;9.30;99.90;;;;;;4991904;28;20475;-70
2023/02/21 02:22:13;;;;;;;29.10;13.50;;;9.30;99.90;;;;;;4989939;28;20992;-70
2023/02/21 02:25:09;;;;;;;32.33;12.97;;;9.40;99.90;;;;;;4989497;28;21644;-70
2023/02/21 02:27:49;;;;;;;23.63;12.20;;;9.40;99.90;;;;;;4992556;28;20561;-70
2023/02/21 02:30:38;;;;;;;32.83;13.57;;;9.30;99.90;;;;;;4994707;28;20499;-70
2023/02/21 02:33:33;;;;;;;27.73;13.30;;;9.30;99.90;;;;;;4993689;28;20425;-71
2023/02/21 02:36:06;;;;;;;24.27;12.77;;;9.30;99.90;;;;;;4970024;28;20591;-71
2023/02/21 02:38:37;;;;;;;23.03;12.43;;;9.30;99.90;;;;;;4993957;28;20457;-71
2023/02/21 02:41:13;;;;;;;26.73;11.97;;;9.40;99.90;;;;;;4987063;28;20570;-70
2023/02/21 02:43:44;;;;;;;32.90;14.37;;;9.20;99.90;;;;;;4985865;28;20551;-71
2023/02/21 02:46:17;;;;;;;38.13;15.80;;;9.20;99.90;;;;;;4988967;28;20452;-70
2023/02/21 02:48:49;;;;;;;31.13;13.70;;;9.20;99.90;;;;;;4977021;28;20457;-70
2023/02/21 02:51:21;;;;;;;31.13;16.30;;;9.30;99.90;;;;;;4983930;28;20871;-72
2023/02/21 02:53:48;;;;;;;38.47;17.80;;;9.30;99.90;;;;;;4999308;28;21109;-70
2023/02/21 02:56:16;;;;;;;47.93;16.07;;;9.20;99.90;;;;;;4992994;28;20571;-70
2023/02/21 02:58:48;;;;;;;34.07;15.33;;;9.20;99.90;;;;;;4986341;28;20458;-70
2023/02/21 03:01:36;;;;;;;36.30;14.10;;;9.20;99.90;;;;;;4991773;28;20470;-69
2023/02/21 03:04:23;;;;;;;33.93;18.83;;;9.20;99.90;;;;;;4993598;28;20465;-70
2023/02/21 03:06:59;;;;;;;26.67;10.87;;;9.30;99.90;;;;;;4984852;28;20477;-70
2023/02/21 03:09:29;;;;;;;42.37;18.73;;;9.40;99.90;;;;;;5002053;28;20456;-69
2023/02/21 03:12:03;;;;;;;23.77;11.60;;;9.20;99.90;;;;;;4989376;28;20474;-70
2023/02/21 03:14:38;;;;;;;31.33;14.10;;;9.20;99.90;;;;;;4997149;28;20439;-69
2023/02/21 03:17:11;;;;;;;31.03;13.90;;;9.20;99.90;;;;;;4996037;28;20526;-69
2023/02/21 03:19:43;;;;;;;33.13;15.23;;;9.30;99.90;;;;;;4978445;28;20473;-69
2023/02/21 03:22:15;;;;;;;39.10;17.40;;;9.20;99.90;;;;;;4991774;28;20468;-71
2023/02/21 03:24:44;;;;;;;32.50;13.93;;;9.20;99.90;;;;;;4985303;28;20444;-71
2023/02/21 03:27:13;;;;;;;43.17;15.73;;;9.20;99.90;;;;;;5001152;28;20471;-69
2023/02/21 03:29:46;;;;;;;46.07;16.07;;;9.30;99.90;;;;;;5007066;28;20519;-69
2023/02/21 03:34:44;;;;;;;35.97;16.90;;;9.20;99.90;;;;;;4988832;28;20627;-70
2023/02/21 03:37:20;;;;;;;35.20;17.30;;;9.30;99.90;;;;;;4994374;28;20491;-69
2023/02/21 03:39:47;;;;;;;26.23;13.83;;;9.20;99.90;;;;;;4987159;28;20464;-69
2023/02/21 03:42:14;;;;;;;37.87;15.63;;;9.20;99.90;;;;;;4988451;28;20465;-71
2023/02/21 03:44:41;;;;;;;41.13;15.60;;;9.20;99.90;;;;;;5005213;28;20524;-70
2023/02/21 03:47:08;;;;;;;40.27;15.27;;;9.20;99.90;;;;;;5000489;28;20614;-70
2023/02/21 03:49:35;;;;;;;41.93;17.37;;;9.20;99.90;;;;;;4994496;28;20432;-69
2023/02/21 03:52:02;;;;;;;39.27;17.13;;;9.10;99.90;;;;;;4996605;28;21195;-69
2023/02/21 03:54:37;;;;;;;37.40;12.90;;;9.20;99.90;;;;;;4989150;28;20461;-69
2023/02/21 03:57:04;;;;;;;30.83;14.97;;;9.10;99.90;;;;;;4991253;28;21072;-71
2023/02/21 03:59:32;;;;;;;32.60;16.00;;;9.10;99.90;;;;;;4986454;28;22872;-70
2023/02/21 04:01:59;;;;;;;47.43;17.20;;;9.10;99.90;;;;;;4981377;28;21376;-71
2023/02/21 04:04:26;;;;;;;35.03;16.67;;;9.10;99.90;;;;;;4988285;28;20469;-70
2023/02/21 04:06:53;;;;;;;28.30;13.67;;;9.10;99.90;;;;;;4989639;28;20861;-69
2023/02/21 04:09:20;;;;;;;32.60;13.97;;;9.20;99.90;;;;;;4983203;28;20468;-70
2023/02/21 04:11:49;;;;;;;40.83;19.10;;;9.20;99.90;;;;;;4986203;28;20815;-71
2023/02/21 04:14:15;;;;;;;31.63;11.17;;;9.30;99.90;;;;;;4959845;28;20620;-71
2023/02/21 04:16:42;;;;;;;41.37;17.83;;;9.30;99.90;;;;;;4991717;28;20484;-71
2023/02/21 04:19:09;;;;;;;32.40;12.93;;;9.30;99.90;;;;;;5000356;28;20486;-71
2023/02/21 04:21:36;;;;;;;38.97;15.40;;;9.30;99.90;;;;;;4997259;28;20470;-71
2023/02/21 04:24:06;;;;;;;45.73;17.77;;;9.20;99.90;;;;;;5000918;28;20845;-70
2023/02/21 04:26:33;;;;;;;15.80;9.10;;;9.30;99.90;;;;;;4990477;28;20494;-71
2023/02/21 04:29:02;;;;;;;47.60;15.77;;;9.20;99.90;;;;;;4999054;28;20487;-70
2023/02/21 04:31:29;;;;;;;33.37;16.23;;;9.20;99.90;;;;;;5004180;28;20987;-70
2023/02/21 04:33:56;;;;;;;29.17;13.80;;;9.10;99.90;;;;;;4994131;28;21026;-71
2023/02/21 04:36:22;;;;;;;42.17;15.23;;;9.10;99.90;;;;;;4991282;28;20452;-70
2023/02/21 04:38:50;;;;;;;45.70;18.10;;;9.10;99.90;;;;;;4991891;28;20684;-71
2023/02/21 04:41:17;;;;;;;31.97;15.60;;;9.10;99.90;;;;;;4992888;28;20443;-70
2023/02/21 04:43:51;;;;;;;34.20;15.00;;;9.20;99.90;;;;;;4995883;28;20492;-70
2023/02/21 04:46:23;;;;;;;42.77;17.43;;;9.10;99.90;;;;;;4992324;28;21523;-70
2023/02/21 04:48:52;;;;;;;31.03;12.97;;;9.10;99.90;;;;;;4989258;28;20432;-70
2023/02/21 04:51:21;;;;;;;36.00;15.77;;;9.00;99.90;;;;;;5002473;28;20452;-68
2023/02/21 04:53:53;;;;;;;36.47;17.10;;;9.10;99.90;;;;;;4983478;28;20450;-69
2023/02/21 04:56:21;;;;;;;45.80;14.60;;;9.10;99.90;;;;;;4990799;28;20510;-70
2023/02/21 04:58:49;;;;;;;25.93;12.43;;;9.10;99.90;;;;;;4992656;28;20464;-69
2023/02/21 05:01:17;;;;;;;24.53;12.23;;;9.10;99.90;;;;;;4998568;28;20454;-70
2023/02/21 05:03:46;;;;;;;37.20;15.23;;;9.10;99.90;;;;;;5001641;28;20944;-71
2023/02/21 05:06:21;;;;;;;30.53;13.47;;;9.10;99.90;;;;;;4950613;28;20477;-70
2023/02/21 05:08:48;;;;;;;35.13;14.80;;;9.20;99.90;;;;;;5005757;28;20447;-72
2023/02/21 05:11:15;;;;;;;47.20;18.63;;;9.20;99.90;;;;;;5002153;28;20861;-70
2023/02/21 05:13:43;;;;;;;40.37;18.47;;;9.20;99.90;;;;;;4997507;28;20472;-70
2023/02/21 05:16:13;;;;;;;39.47;17.50;;;9.20;99.90;;;;;;4995178;28;20485;-70
2023/02/21 05:18:47;;;;;;;48.57;16.60;;;9.20;99.90;;;;;;4993560;28;21439;-70
2023/02/21 05:21:15;;;;;;;29.53;12.80;;;9.20;99.90;;;;;;4997795;28;20461;-70
2023/02/21 05:23:54;;;;;;;35.43;17.13;;;9.20;99.90;;;;;;4997024;28;20453;-71
2023/02/21 05:26:22;;;;;;;27.70;12.63;;;9.20;99.90;;;;;;4991590;28;20477;-70
2023/02/21 05:28:50;;;;;;;31.23;12.87;;;9.20;99.90;;;;;;4989007;28;20453;-72
2023/02/21 05:31:17;;;;;;;30.23;12.80;;;9.20;99.90;;;;;;4995218;28;20539;-71
2023/02/21 05:33:45;;;;;;;38.63;17.67;;;9.20;99.90;;;;;;4990685;28;20475;-70
2023/02/21 05:36:12;;;;;;;35.43;15.67;;;9.20;99.90;;;;;;4978419;28;21312;-69
2023/02/21 05:38:47;;;;;;;51.00;17.30;;;9.20;99.90;;;;;;4982566;28;20975;-71
2023/02/21 05:41:14;;;;;;;33.33;15.13;;;9.30;99.90;;;;;;4986592;28;20461;-71
2023/02/21 05:43:48;;;;;;;23.37;13.50;;;9.20;99.90;;;;;;4994059;28;20451;-71
2023/02/21 05:46:24;;;;;;;36.43;15.47;;;9.10;99.90;;;;;;4995849;28;20509;-70
2023/02/21 05:48:55;;;;;;;42.70;15.87;;;9.10;99.90;;;;;;4993144;28;20441;-71
2023/02/21 05:51:22;;;;;;;40.67;15.37;;;9.10;99.90;;;;;;4994348;28;20744;-71
2023/02/21 05:53:49;;;;;;;41.97;14.13;;;9.10;99.90;;;;;;4983461;28;20551;-72
2023/02/21 05:56:16;;;;;;;25.63;13.23;;;9.20;99.90;;;;;;4959134;28;20478;-70
2023/02/21 05:58:44;;;;;;;53.83;18.97;;;9.20;99.90;;;;;;4986161;28;20465;-71
2023/02/21 06:01:12;;;;;;;51.20;17.60;;;9.00;99.90;;;;;;4978684;28;20452;-71
2023/02/21 06:03:39;;;;;;;41.40;17.13;;;9.00;99.90;;;;;;4989395;28;20515;-71
2023/02/21 06:06:09;;;;;;;41.00;17.80;;;8.90;99.90;;;;;;4990400;28;20508;-71
2023/02/21 06:08:43;;;;;;;42.40;17.90;;;9.00;99.90;;;;;;4998564;28;20469;-70
2023/02/21 06:11:10;;;;;;;37.27;15.30;;;9.00;99.90;;;;;;4991929;28;20458;-71
2023/02/21 06:13:37;;;;;;;42.57;18.93;;;8.90;99.90;;;;;;4939955;28;20552;-71
2023/02/21 06:16:05;;;;;;;32.73;13.20;;;8.90;99.90;;;;;;5006752;28;20776;-70
2023/02/21 06:18:33;;;;;;;37.77;13.93;;;8.80;99.90;;;;;;4988075;28;20524;-72
2023/02/21 06:21:00;;;;;;;31.00;11.40;;;8.80;99.90;;;;;;4991375;28;20567;-70
2023/02/21 06:23:29;;;;;;;28.67;15.63;;;8.80;99.90;;;;;;4990804;28;20953;-70
2023/02/21 06:25:55;;;;;;;45.83;18.40;;;8.70;99.90;;;;;;4996864;28;20945;-71
2023/02/21 06:28:29;;;;;;;25.80;12.90;;;8.70;99.90;;;;;;4989435;28;21085;-71
2023/02/21 06:30:56;;;;;;;44.93;15.70;;;8.60;99.90;;;;;;4983203;28;20462;-70
2023/02/21 06:33:26;;;;;;;48.57;19.33;;;8.60;99.90;;;;;;4990439;28;20481;-71
2023/02/21 06:35:53;;;;;;;43.20;14.63;;;8.70;99.90;;;;;;4985809;28;20462;-73
2023/02/21 06:38:20;;;;;;;45.87;16.87;;;8.70;99.90;;;;;;4987955;28;20466;-72
2023/02/21 06:40:50;;;;;;;30.17;13.50;;;8.70;99.90;;;;;;4984235;28;20439;-69
2023/02/21 06:43:17;;;;;;;32.63;11.63;;;8.70;99.90;;;;;;4982577;28;20561;-70
2023/02/21 06:45:44;;;;;;;31.87;15.37;;;8.70;99.90;;;;;;4990480;28;20461;-69
2023/02/21 06:48:17;;;;;;;46.27;15.87;;;8.60;99.90;;;;;;4988375;28;20440;-71
2023/02/21 06:50:45;;;;;;;32.17;14.77;;;8.70;99.90;;;;;;4990668;28;20440;-69
2023/02/21 06:53:12;;;;;;;29.43;13.23;;;8.70;99.90;;;;;;4980659;28;20478;-70
2023/02/21 06:55:39;;;;;;;43.73;17.23;;;8.70;99.90;;;;;;4997739;28;20456;-70
2023/02/21 06:58:10;;;;;;;46.87;16.03;;;8.70;99.90;;;;;;5002129;28;20513;-71
2023/02/21 07:00:41;;;;;;;34.57;17.23;;;8.80;99.90;;;;;;4994002;28;20431;-72
2023/02/21 07:03:08;;;;;;;42.03;14.90;;;8.80;99.90;;;;;;4994417;28;20478;-72
2023/02/21 07:05:37;;;;;;;48.80;19.00;;;8.90;99.90;;;;;;4993579;28;20825;-71
2023/02/21 07:08:05;;;;;;;36.63;14.70;;;8.90;99.90;;;;;;4994404;28;20504;-72
2023/02/21 07:10:32;;;;;;;46.83;12.60;;;8.80;99.90;;;;;;4981985;28;21631;-72
2023/02/21 07:12:59;;;;;;;37.17;15.37;;;8.80;99.90;;;;;;4931897;28;20650;-69
2023/02/21 07:15:28;;;;;;;39.30;14.07;;;8.80;99.90;;;;;;4986718;28;20751;-71
2023/02/21 07:17:55;;;;;;;43.67;13.83;;;8.80;99.90;;;;;;5002918;28;20492;-69
2023/02/21 07:20:22;;;;;;;37.27;13.70;;;8.80;99.90;;;;;;4997333;28;20544;-71
2023/02/21 07:22:51;;;;;;;49.70;16.33;;;8.80;99.90;;;;;;4996247;28;20493;-71
2023/02/21 07:25:21;;;;;;;42.90;17.87;;;8.80;99.90;;;;;;4989121;28;20891;-70
2023/02/21 07:27:52;;;;;;;36.20;15.37;;;8.90;99.90;;;;;;4979848;28;20543;-69
2023/02/21 07:30:19;;;;;;;47.40;17.00;;;8.90;99.90;;;;;;4996122;28;20462;-70
2023/02/21 07:32:49;;;;;;;58.43;16.47;;;8.90;99.90;;;;;;4987211;28;20513;-72
2023/02/21 07:35:16;;;;;;;39.30;19.20;;;9.00;99.90;;;;;;4987165;28;20477;-69
2023/02/21 07:37:43;;;;;;;31.03;12.90;;;9.00;99.90;;;;;;4977981;28;20481;-72
2023/02/21 07:40:10;;;;;;;37.43;13.63;;;9.00;99.90;;;;;;4975906;28;20865;-71
2023/02/21 07:42:42;;;;;;;65.87;20.13;;;9.00;99.90;;;;;;5001913;28;20424;-70
2023/02/21 07:45:12;;;;;;;42.80;19.50;;;9.00;99.90;;;;;;4989335;28;20735;-70
2023/02/21 07:47:39;;;;;;;41.90;14.97;;;8.90;99.90;;;;;;4984931;28;20908;-71
2023/02/21 07:50:09;;;;;;;56.67;20.20;;;8.90;99.90;;;;;;4992094;28;20461;-71
2023/02/21 07:52:39;;;;;;;33.70;17.73;;;9.00;99.90;;;;;;4979280;28;20573;-70
2023/02/21 07:55:07;;;;;;;34.97;16.23;;;9.10;99.90;;;;;;4984188;28;20492;-70
2023/02/21 07:57:35;;;;;;;42.20;15.20;;;9.10;99.90;;;;;;4996722;28;21118;-70
2023/02/21 08:00:03;;;;;;;39.30;16.63;;;9.00;99.90;;;;;;4986994;28;20465;-70
2023/02/21 08:02:30;;;;;;;34.20;15.50;;;9.00;99.90;;;;;;4992238;28;21235;-70
2023/02/21 08:04:57;;;;;;;33.80;11.57;;;8.90;99.90;;;;;;4945921;28;21202;-71
2023/02/21 08:07:25;;;;;;;42.73;15.50;;;8.90;99.90;;;;;;4989679;28;20585;-70
2023/02/21 08:09:52;;;;;;;48.47;14.73;;;8.90;99.90;;;;;;4970295;28;20537;-72
2023/02/21 08:12:19;;;;;;;51.17;20.17;;;8.80;99.90;;;;;;4985169;28;21045;-72
2023/02/21 08:14:49;;;;;;;39.43;12.70;;;8.80;99.90;;;;;;4985764;28;20957;-72
2023/02/21 08:17:17;;;;;;;34.73;14.83;;;8.70;99.90;;;;;;4986025;28;20467;-71
2023/02/21 08:19:46;;;;;;;28.43;10.33;;;8.80;99.90;;;;;;4985967;28;20443;-68
2023/02/21 08:22:15;;;;;;;48.63;17.13;;;8.80;99.90;;;;;;4948718;28;20577;-70
2023/02/21 08:24:45;;;;;;;29.50;14.87;;;8.70;99.90;;;;;;4988351;28;20464;-70
2023/02/21 08:27:12;;;;;;;57.90;17.47;;;8.70;99.90;;;;;;4979437;28;20512;-72
2023/02/21 08:29:39;;;;;;;39.63;17.33;;;8.70;99.90;;;;;;4985414;28;20481;-70
2023/02/21 08:32:06;;;;;;;31.23;10.00;;;8.70;99.90;;;;;;4980975;28;20463;-70
2023/02/21 08:34:33;;;;;;;27.40;14.33;;;8.60;99.90;;;;;;4973497;28;20466;-68
2023/02/21 08:37:00;;;;;;;43.10;16.60;;;8.70;99.90;;;;;;4944570;28;20921;-71
2023/02/21 08:39:30;;;;;;;31.30;11.67;;;8.60;99.90;;;;;;4980832;28;20436;-71
2023/02/21 08:41:59;;;;;;;51.00;17.17;;;8.70;99.90;;;;;;4977449;28;21035;-69
2023/02/21 08:44:26;;;;;;;43.83;11.80;;;8.60;99.90;;;;;;4978003;28;20787;-70
2023/02/21 08:46:53;;;;;;;37.73;14.80;;;8.70;99.90;;;;;;4975437;28;20481;-70
2023/02/21 08:49:27;;;;;;;35.17;14.43;;;8.80;99.90;;;;;;4998557;28;20508;-69
2023/02/21 08:51:54;;;;;;;37.13;16.47;;;8.70;99.90;;;;;;4980612;28;20431;-69
2023/02/21 08:54:21;;;;;;;36.53;13.77;;;8.60;99.90;;;;;;4978109;28;20460;-70
2023/02/21 08:56:53;;;;;;;32.97;13.83;;;8.60;99.90;;;;;;4985303;28;21052;-69
2023/02/21 08:59:22;;;;;;;24.00;9.50;;;8.60;99.90;;;;;;4990850;28;20464;-69
2023/02/21 09:01:49;;;;;;;31.97;11.77;;;8.60;99.90;;;;;;4986367;28;21056;-70
2023/02/21 09:04:16;;;;;;;42.60;12.73;;;8.70;99.90;;;;;;4975299;28;20441;-68
2023/02/21 09:06:43;;;;;;;39.33;12.77;;;8.60;99.90;;;;;;4976465;28;20580;-71
2023/02/21 09:09:10;;;;;;;42.17;15.90;;;8.50;99.90;;;;;;4982556;28;20579;-72
2023/02/21 09:11:38;;;;;;;37.83;12.03;;;8.50;99.90;;;;;;4989594;28;20549;-69
2023/02/21 09:14:05;;;;;;;39.23;13.47;;;8.60;99.90;;;;;;4976901;28;20536;-70
2023/02/21 09:16:34;;;;;;;31.93;12.17;;;8.50;99.90;;;;;;4976548;28;20484;-70
2023/02/21 09:19:12;;;;;;;28.13;12.60;;;8.60;99.90;;;;;;4988194;28;20616;-69
2023/02/21 09:21:45;;;;;;;29.27;12.80;;;8.70;99.90;;;;;;4977135;28;20453;-69
2023/02/21 09:24:12;;;;;;;24.07;11.20;;;8.70;99.90;;;;;;4980892;28;20474;-71
2023/02/21 09:26:39;;;;;;;19.10;9.80;;;8.70;99.90;;;;;;5000668;28;20563;-69
2023/02/21 09:29:06;;;;;;;35.40;13.13;;;8.60;99.90;;;;;;4986164;28;20461;-71
2023/02/21 09:31:34;;;;;;;32.77;12.87;;;8.60;99.90;;;;;;4980084;28;20460;-71
2023/02/21 09:34:01;;;;;;;31.53;12.50;;;8.60;99.90;;;;;;4981984;28;20458;-70
2023/02/21 09:36:28;;;;;;;27.43;10.77;;;8.70;99.90;;;;;;4985356;28;20569;-71
2023/02/21 09:38:57;;;;;;;30.97;9.00;;;8.90;99.90;;;;;;4991308;28;20516;-71
2023/02/21 09:41:24;;;;;;;49.87;11.90;;;8.90;99.90;;;;;;4983827;28;20450;-71
2023/02/21 09:43:54;;;;;;;45.10;14.87;;;8.80;99.90;;;;;;4994954;28;20485;-71
2023/02/21 09:46:31;;;;;;;33.80;12.87;;;8.80;99.90;;;;;;4984152;28;21105;-71
2023/02/21 09:49:01;;;;;;;37.13;13.63;;;8.90;99.90;;;;;;4982575;28;21071;-70
2023/02/21 09:51:29;;;;;;;23.57;10.67;;;9.00;99.90;;;;;;4992974;28;20466;-69
2023/02/21 09:53:59;;;;;;;16.80;6.10;;;8.90;99.90;;;;;;4995234;28;20711;-70
2023/02/21 09:56:29;;;;;;;32.87;12.20;;;8.90;99.90;;;;;;4987908;28;20566;-71
2023/02/21 09:58:57;;;;;;;39.43;15.10;;;8.90;99.90;;;;;;4992095;28;20466;-72
2023/02/21 10:01:32;;;;;;;29.13;13.07;;;8.90;99.90;;;;;;4989526;28;20984;-70
2023/02/21 10:04:13;;;;;;;32.87;16.20;;;9.00;99.90;;;;;;4984480;28;20567;-69
2023/02/21 10:06:46;;;;;;;34.27;10.77;;;8.90;99.90;;;;;;4989100;28;20478;-70
2023/02/21 10:09:24;;;;;;;18.13;9.97;;;9.00;99.90;;;;;;4990513;28;20432;-69
2023/02/21 10:11:59;;;;;;;38.77;12.77;;;9.00;99.90;;;;;;4998667;28;20465;-70
2023/02/21 10:14:40;;;;;;;31.47;10.77;;;9.00;99.90;;;;;;4990698;28;20560;-69
2023/02/21 10:17:17;;;;;;;45.97;14.97;;;9.00;99.90;;;;;;4979350;28;20634;-72
2023/02/21 10:19:53;;;;;;;23.80;10.80;;;9.10;99.90;;;;;;4982150;28;20466;-71
2023/02/21 10:22:25;;;;;;;21.87;10.63;;;9.20;99.90;;;;;;4991874;28;20457;-70
2023/02/21 10:24:52;;;;;;;31.67;11.93;;;9.30;99.90;;;;;;4993572;28;20432;-71
2023/02/21 10:27:22;;;;;;;30.80;12.87;;;9.40;99.90;;;;;;4996069;28;20576;-71
2023/02/21 10:29:56;;;;;;;18.80;7.30;;;9.30;99.90;;;;;;4994123;28;20428;-69
2023/02/21 10:32:24;;;;;;;22.83;11.30;;;9.30;99.90;;;;;;4994513;28;20488;-71
2023/02/21 10:34:54;;;;;;;46.10;10.70;;;9.20;99.90;;;;;;4995512;28;20477;-71
2023/02/21 10:37:33;;;;;;;22.60;8.90;;;9.20;99.90;;;;;;4993223;28;20459;-71
2023/02/21 10:40:04;;;;;;;26.97;11.83;;;9.20;99.90;;;;;;4998682;28;20458;-70
2023/02/21 10:42:37;;;;;;;25.50;11.17;;;9.20;99.90;;;;;;4994410;28;21037;-72
2023/02/21 10:45:06;;;;;;;24.67;10.77;;;9.20;99.90;;;;;;4994556;28;20583;-71
2023/02/21 10:47:48;;;;;;;25.87;10.37;;;9.40;99.90;;;;;;4989523;28;20459;-71
2023/02/21 10:50:16;;;;;;;22.53;9.57;;;9.50;99.90;;;;;;4992709;28;20545;-70
2023/02/21 10:52:49;;;;;;;32.40;12.50;;;9.40;99.90;;;;;;4996080;28;20454;-71
2023/02/21 10:55:18;;;;;;;18.03;7.80;;;9.50;99.90;;;;;;4997890;28;20440;-70
2023/02/21 10:57:49;;;;;;;23.20;9.30;;;9.40;99.90;;;;;;4992444;28;21569;-68
2023/02/21 11:00:24;;;;;;;17.20;10.97;;;9.40;99.90;;;;;;5012099;28;21143;-70
2023/02/21 11:02:56;;;;;;;34.53;10.73;;;9.50;99.90;;;;;;4996269;28;20464;-70
2023/02/21 11:05:25;;;;;;;28.10;11.83;;;9.60;99.90;;;;;;4993288;28;20461;-71
2023/02/21 11:07:59;;;;;;;12.03;7.53;;;9.50;99.90;;;;;;4993440;28;20485;-72
2023/02/21 11:10:34;;;;;;;36.03;13.10;;;9.50;99.90;;;;;;5002173;28;20552;-71
2023/02/21 11:13:20;;;;;;;25.97;9.77;;;9.50;99.90;;;;;;4989058;28;20552;-70
2023/02/21 11:15:48;;;;;;;23.23;10.47;;;9.50;99.90;;;;;;4985276;28;20443;-71
2023/02/21 11:18:18;;;;;;;22.77;10.57;;;9.60;99.90;;;;;;4984970;28;20973;-70
2023/02/21 11:20:47;;;;;;;26.20;9.77;;;9.70;99.90;;;;;;4983412;28;20681;-71
2023/02/21 11:23:24;;;;;;;33.70;12.47;;;9.60;99.90;;;;;;4986085;28;20644;-71
2023/02/21 11:25:58;;;;;;;24.80;9.60;;;9.60;99.90;;;;;;4990308;28;20881;-70
2023/02/21 11:28:25;;;;;;;22.47;10.97;;;9.70;99.90;;;;;;4980227;28;20515;-71
2023/02/21 11:31:13;;;;;;;24.70;11.03;;;9.70;99.90;;;;;;4987136;28;20477;-72
2023/02/21 11:33:44;;;;;;;35.57;11.87;;;9.70;99.90;;;;;;4983610;28;20478;-70
2023/02/21 11:36:15;;;;;;;25.50;9.67;;;9.70;99.90;;;;;;4988402;28;20484;-71
2023/02/21 11:38:44;;;;;;;38.83;12.07;;;9.60;99.90;;;;;;4986125;28;20485;-71
2023/02/21 11:41:23;;;;;;;31.33;12.33;;;9.60;99.90;;;;;;4994674;28;20535;-70
2023/02/21 11:43:51;;;;;;;23.67;11.10;;;9.60;99.90;;;;;;4997738;28;20434;-72
2023/02/21 11:46:27;;;;;;;20.47;9.40;;;9.70;99.90;;;;;;4994621;28;20472;-70
2023/02/21 11:49:02;;;;;;;29.70;9.53;;;9.70;99.90;;;;;;4980229;28;21113;-69
2023/02/21 11:51:45;;;;;;;31.73;9.83;;;9.70;99.90;;;;;;4994240;28;20436;-71
2023/02/21 11:54:16;;;;;;;25.07;8.47;;;9.80;99.90;;;;;;4991625;28;20489;-69
2023/02/21 11:56:50;;;;;;;21.40;9.50;;;9.80;99.90;;;;;;4987196;28;20486;-70
2023/02/21 11:59:29;;;;;;;19.47;10.40;;;9.80;99.90;;;;;;4991054;28;21044;-70
2023/02/21 12:02:21;;;;;;;17.80;8.33;;;9.60;99.90;;;;;;4993188;28;20469;-70
2023/02/21 12:05:05;;;;;;;17.00;8.90;;;9.60;99.90;;;;;;4997510;28;20481;-70
2023/02/21 12:07:43;;;;;;;20.50;7.53;;;9.60;99.90;;;;;;4995413;28;20532;-70
2023/02/21 12:10:32;;;;;;;22.80;10.03;;;9.70;99.90;;;;;;4990870;28;20481;-70
2023/02/21 12:13:09;;;;;;;19.93;9.97;;;9.80;99.90;;;;;;4992070;28;20840;-71
2023/02/21 12:15:48;;;;;;;28.00;9.97;;;9.70;99.90;;;;;;5002112;28;20464;-70
2023/02/21 12:18:29;;;;;;;23.10;9.03;;;9.90;99.90;;;;;;4997782;28;20531;-69
2023/02/21 12:21:20;;;;;;;12.27;7.43;;;9.90;99.90;;;;;;4987246;28;20436;-71
2023/02/21 12:23:56;;;;;;;24.23;8.77;;;9.90;99.90;;;;;;4995984;28;21047;-70
2023/02/21 12:26:35;;;;;;;21.23;10.27;;;10.10;99.90;;;;;;4989959;28;21057;-71
2023/02/21 12:29:29;;;;;;;27.03;9.90;;;10.10;99.90;;;;;;4998623;28;20957;-69
2023/02/21 12:32:15;;;;;;;15.30;6.60;;;10.20;99.90;;;;;;4994207;28;20580;-69
2023/02/21 12:34:57;;;;;;;23.53;10.03;;;10.10;99.90;;;;;;5000274;28;20601;-72
2023/02/21 12:37:33;;;;;;;21.47;12.30;;;10.00;99.90;;;;;;4991798;28;20483;-70
2023/02/21 12:40:23;;;;;;;23.27;9.50;;;10.00;99.90;;;;;;4994842;28;20529;-70
2023/02/21 12:43:12;;;;;;;25.50;10.90;;;10.10;99.90;;;;;;4999619;28;20466;-70
2023/02/21 12:45:49;;;;;;;15.17;8.03;;;10.10;99.90;;;;;;5002717;28;20536;-69
2023/02/21 12:48:27;;;;;;;24.83;11.33;;;10.20;99.90;;;;;;4994256;28;20544;-71
2023/02/21 12:51:02;;;;;;;23.20;11.20;;;10.40;99.90;;;;;;4997516;28;20469;-70
2023/02/21 12:53:34;;;;;;;22.73;10.83;;;10.50;99.90;;;;;;4998534;28;20456;-70
2023/02/21 12:56:07;;;;;;;22.03;9.73;;;10.60;99.90;;;;;;5000294;28;20547;-70
2023/02/21 12:58:43;;;;;;;16.43;7.17;;;10.70;99.90;;;;;;4991115;28;20515;-70
2023/02/21 13:01:16;;;;;;;18.13;10.37;;;10.70;99.90;;;;;;4995365;28;20556;-70
2023/02/21 13:03:53;;;;;;;19.03;9.67;;;10.70;99.90;;;;;;5007056;28;20460;-70
2023/02/21 13:06:25;;;;;;;15.77;8.77;;;10.70;99.90;;;;;;4994817;28;20459;-70
2023/02/21 13:09:04;;;;;;;13.57;8.80;;;10.70;99.90;;;;;;4994318;28;20540;-69
2023/02/21 13:11:40;;;;;;;25.70;9.47;;;10.70;99.90;;;;;;4979051;28;20974;-69
2023/02/21 13:14:11;;;;;;;17.23;8.63;;;10.90;99.90;;;;;;4978500;28;20481;-69
2023/02/21 13:16:38;;;;;;;19.20;8.60;;;11.10;99.90;;;;;;4971629;28;20481;-69
2023/02/21 13:19:10;;;;;;;14.13;6.70;;;11.10;99.90;;;;;;4979354;28;20466;-69
2023/02/21 13:21:58;;;;;;;16.40;9.13;;;11.20;99.90;;;;;;4993564;28;20580;-69
2023/02/21 13:24:37;;;;;;;11.53;5.50;;;11.20;99.90;;;;;;4985545;28;20456;-70
2023/02/21 13:27:54;;;;;;;14.60;6.80;;;11.20;99.90;;;;;;4988503;28;20996;-71
2023/02/21 13:30:27;;;;;;;15.83;6.63;;;11.10;99.90;;;;;;4981705;28;20520;-71
2023/02/21 13:32:56;;;;;;;16.73;7.10;;;11.00;99.90;;;;;;4969977;28;20466;-70
2023/02/21 13:35:31;;;;;;;14.00;7.10;;;11.00;99.90;;;;;;4979478;28;20463;-72
2023/02/21 13:38:00;;;;;;;14.47;7.20;;;11.00;99.90;;;;;;4966155;28;20513;-70
2023/02/21 13:40:36;;;;;;;15.37;8.27;;;11.10;99.90;;;;;;4982661;28;20465;-70
2023/02/21 13:43:11;;;;;;;13.20;7.80;;;11.10;99.90;;;;;;4971959;28;21816;-69
2023/02/21 13:45:38;;;;;;;13.00;7.07;;;11.10;99.90;;;;;;4967928;28;20459;-70
2023/02/21 13:48:32;;;;;;;13.50;7.80;;;11.00;99.90;;;;;;4977030;28;20897;-70
2023/02/21 13:51:00;;;;;;;18.90;9.23;;;10.80;99.90;;;;;;4988289;28;25123;-70
2023/02/21 13:53:32;;;;;;;14.43;7.50;;;10.80;99.90;;;;;;4985668;28;20564;-70
2023/02/21 13:56:19;;;;;;;12.53;6.90;;;11.00;99.90;;;;;;4978401;28;20463;-70
2023/02/21 13:58:48;;;;;;;19.43;7.03;;;11.10;99.90;;;;;;4982938;28;20869;-68
2023/02/21 14:01:50;;;;;;;13.13;6.20;;;11.10;99.90;;;;;;4986074;28;20974;-69
2023/02/21 14:05:02;;;;;;;14.63;6.87;;;11.20;99.90;;;;;;4993398;28;20445;-71
2023/02/21 14:07:58;;;;;;;14.07;5.90;;;11.30;99.90;;;;;;4980964;28;20488;-71
2023/02/21 14:10:41;;;;;;;14.07;5.90;;;11.30;99.90;;;;;;4965273;28;20471;-70
2023/02/21 14:13:20;;;;;;;14.63;9.17;;;11.30;99.90;;;;;;4982931;28;20496;-69
2023/02/21 14:15:57;;;;;;;17.73;7.20;;;11.20;99.90;;;;;;4979239;28;21054;-71
2023/02/21 14:18:28;;;;;;;12.73;8.23;;;11.30;99.90;;;;;;4987177;28;20440;-71
2023/02/21 14:20:58;;;;;;;13.03;6.90;;;11.30;99.90;;;;;;4987315;28;20518;-72
2023/02/21 14:23:36;;;;;;;14.00;7.60;;;11.30;99.90;;;;;;4993635;28;20564;-72
2023/02/21 14:26:05;;;;;;;19.10;10.60;;;11.20;99.90;;;;;;4989622;28;21096;-70
2023/02/21 14:29:02;;;;;;;18.80;9.70;;;11.30;99.90;;;;;;4989280;28;20480;-72
2023/02/21 14:31:53;;;;;;;12.00;7.40;;;11.30;99.90;;;;;;4987535;28;20458;-72
2023/02/21 14:34:26;;;;;;;9.90;6.40;;;11.40;99.90;;;;;;4983713;28;20496;-69
2023/02/21 14:36:58;;;;;;;16.23;8.50;;;11.40;99.90;;;;;;4989523;28;20608;-70
2023/02/21 14:39:30;;;;;;;15.90;9.50;;;11.30;99.90;;;;;;4984319;28;20839;-71
2023/02/21 14:42:27;;;;;;;14.77;7.50;;;11.10;99.90;;;;;;4991304;28;20560;-72
2023/02/21 14:45:34;;;;;;;16.90;7.73;;;11.00;99.90;;;;;;4986435;28;20453;-71
2023/02/21 14:48:37;;;;;;;19.27;9.40;;;11.10;99.90;;;;;;4975063;28;21157;-70
2023/02/21 14:51:41;;;;;;;15.17;6.90;;;11.10;99.90;;;;;;4990499;28;20457;-71
2023/02/21 14:54:37;;;;;;;16.97;8.23;;;11.20;99.90;;;;;;4998127;28;20474;-71
2023/02/21 14:57:34;;;;;;;16.70;9.63;;;11.30;99.90;;;;;;4958825;28;20483;-72
2023/02/21 15:00:13;;;;;;;15.43;5.40;;;11.30;99.90;;;;;;4997190;28;20974;-71
2023/02/21 15:02:47;;;;;;;17.10;7.57;;;11.40;99.90;;;;;;4999413;28;20473;-70
2023/02/21 15:05:19;;;;;;;14.83;7.37;;;11.20;99.90;;;;;;5000827;28;20523;-71
2023/02/21 15:07:56;;;;;;;17.43;8.40;;;11.00;99.90;;;;;;4996669;28;20462;-72
2023/02/21 15:10:25;;;;;;;15.03;7.13;;;10.90;99.90;;;;;;4995205;28;20480;-71
2023/02/21 15:12:55;;;;;;;12.93;7.60;;;10.90;99.90;;;;;;4990585;28;20872;-72
2023/02/21 15:15:26;;;;;;;20.37;8.23;;;10.90;99.90;;;;;;4992524;28;20729;-71
2023/02/21 15:18:08;;;;;;;14.70;8.10;;;11.00;99.90;;;;;;4989118;28;20472;-70
2023/02/21 15:20:38;;;;;;;16.87;8.43;;;11.00;99.90;;;;;;4993554;28;20457;-73
2023/02/21 15:23:12;;;;;;;18.87;8.70;;;11.00;99.90;;;;;;4997833;28;20914;-70